Seattle, Washington
Traffic Map
Current Weather Conditions
Seattle, Washington
Overcast Light Rain
Overcast
13°
Feels Like: 13°
Wind Chill: 13° Ceiling: 4000
Heat Index: 13° Visibility: 9mi
Dew Point: Wind: 7mph
Humidity: 75% Direction: 170° (S)
Pressure: 29.84in Gusts: 0mph
Raw Report DataKBFI 310853Z 17006KT 9SM -RA BKN040 OVC050 13/09 A2984 RMK AO2 RAB20E30B51 SLP106 P0000 60004 T01330089 55006
Traffic Incident Summary
Active as of:
Severity:
Category:
InformationThere was an issue retrieving the traffic information for this location. Please try a different location or try again shortly.
Advertisements
Track Severe Weather on mobile